National Weather Service Raw Text Product

Displaying AFOS PIL: TAFFOD Received: 2017-08-13 17:20 UTC


489 
FTUS43 KDMX 131720
TAFFOD
TAF
KFOD 131720Z 1318/1418 20010KT P6SM VCSH OVC090
     FM131900 16008KT P6SM BKN130
     FM140500 14007KT P6SM VCTS BKN040CB
     FM141100 15006KT P6SM VCTS BKN030CB
     FM141200 16005KT P6SM BKN025=